Decoded Metar for PHNY (LANAI in HI, USA LANAI ISL.) (IATA:LNY) | Meteo·Mobile Aviation Weather
aviador You're here:

PHNY Decoded Metar

LANAI in HI, USA LANAI ISL.
Report Time2018-09-20 07:56:00
UTC Time2018-09-20 08:23:56
Flight Rules vfr VFR
Wind050° at 06 kt
W.Decomp.*RWY 03: 5.9 kt HW 0.9 kt RCW
W.Rank050° ranks 2
Current wind is below 050° avg. (12.9)
Visibility9999 m
Phenomena:N/A
Clouds:N/A
Expected CloudBase > 800 ft AGL from Temp-Dew spread
CeilingNone
Temp23°C (ISA +11)
Dew Point21°C (89% RH)
QNH1016 hPa
Density Alt2,772 ft
Elevation1,309 ft
Report Wrong Elevation
Raw Report
PHNY 200756Z AUTO 05006KT 10SM CLR 23/21 A3001 RMK AO2 SLP138
T02280211=

Extra information for PHNY:More info

Metar Taf Metar & Taf Last 4 Metars F.Rules Stats Wind Profile Meteogram Temp Stats Airport Information Weather charts Add Link Nearby VenuesMetar ALERT Operation Metar Decoded Social comments